Lake Charles Regional Airport
KLCH : now visible

Airfield :











YOU CAN JOIN US ON...

 
LOGIN :

Register | Disclaimer

   EN    FR    IT 

 









Legend :    VFR   Marginal VFR   IFR   Intensive IFR   Very Intensive IFR
Visi :
Ceiling :
>= 8 km
>= 3000ft
5 to 8 km
1000 to 3000 ft
1500m to 5 km
500 to 1000 ft
800 to 1500m
200 to 500 ft
< 800m
< 200 ft
Symbols :   Thunderstorms  Fog  Heavy snow  Heavy precipitations  Wind > 20 kt






- Airport Elevation : 15 ft
- IATA code : LCH


KLCH - Lake Charles Regional

CURRENT METAR :
  • 241053Z 30004KT 9SM CLR 09/04 A3010 RMK AO2 SLP202 T00940039

EXPIRED METARs :
  • 240953Z 30003KT 10SM CLR 11/04 A3009 RMK AO2 SLP196 T01060044
  • 240853Z 32004KT 10SM CLR 12/04 A3008 RMK AO2 SLP194 T01220044 57003
  • 240753Z 33004KT 10SM CLR 12/04 A3009 RMK AO2 SLP196 T01220039
  • 240653Z 35005KT 10SM CLR 14/03 A3008 RMK AO2 SLP195 T01390028

TAF KLCH
Valid from the 24 at 12:00 until the 25 at 12:00 UTC


241120Z 2412/2512 31003KT P6SM SKC
FM241600 31010G16KT P6SM SKC
FM242300 VRB03KT P6SM SKC
KZHU FIR / North America



MET'MAP, your aeronautical weather chart ! - Copyright ORBIFLY December 2007 - Disclaimer

ORBIFLY MET'MAP TEAM :

Programming & Development : Alexandra Zaïnal
Original concept : Baudouin d'Aumeries
Technical & hardware support : Manuel Goepfert
Assistance : Marc-Olivier Méhu




SOURCES & CREDITS :

   NOAA       Earth
Advisory